createdAt,value
2019-05-20T00:00:31.396Z,24.03
2019-05-20T00:02:57.546Z,19.13
2019-05-20T00:05:24.026Z,20.50
2019-05-20T00:07:50.227Z,21.97
2019-05-20T00:10:16.604Z,21.27
2019-05-20T00:12:42.825Z,22.73
2019-05-20T00:15:09.178Z,20.60
2019-05-20T00:17:35.396Z,21.57
2019-05-20T00:20:03.654Z,21.63
2019-05-20T00:22:29.779Z,19.50
2019-05-20T00:24:55.879Z,20.50
2019-05-20T00:27:22.124Z,19.67
2019-05-20T00:29:48.554Z,21.93
2019-05-20T00:32:15.743Z,23.47
2019-05-20T00:34:42.175Z,23.23
2019-05-20T00:37:08.483Z,24.77
2019-05-20T00:39:34.887Z,26.20
2019-05-20T00:42:01.036Z,24.43
2019-05-20T00:44:27.388Z,22.40
2019-05-20T00:46:53.622Z,23.47
2019-05-20T00:49:19.934Z,23.20
2019-05-20T00:51:46.278Z,21.27
2019-05-20T00:54:12.586Z,22.73
2019-05-20T00:56:38.925Z,23.80
2019-05-20T00:59:05.573Z,22.07
2019-05-20T01:01:32.037Z,22.83
2019-05-20T01:03:58.140Z,21.77
2019-05-20T01:06:24.741Z,21.50
2019-05-20T01:08:51.061Z,23.67
2019-05-20T01:11:17.306Z,25.13
2019-05-20T01:13:43.735Z,28.40
2019-05-20T01:16:10.101Z,25.30
2019-05-20T01:18:36.341Z,30.00
2019-05-20T01:21:02.559Z,28.17
2019-05-20T01:23:28.777Z,26.83
2019-05-20T01:25:54.967Z,25.13
2019-05-20T01:28:21.113Z,25.60
2019-05-20T01:30:47.337Z,24.60
2019-05-20T01:33:14.464Z,25.57
2019-05-20T01:35:40.902Z,23.40
2019-05-20T01:38:07.292Z,27.23
2019-05-20T01:40:33.576Z,26.23
2019-05-20T01:42:59.738Z,27.20
2019-05-20T01:45:26.036Z,26.50
2019-05-20T01:47:52.129Z,25.67
2019-05-20T01:50:18.528Z,29.63
2019-05-20T01:52:44.779Z,30.83
2019-05-20T01:55:11.181Z,32.13
2019-05-20T01:57:37.265Z,31.63
2019-05-20T02:00:06.297Z,30.13
2019-05-20T02:02:33.485Z,32.83
2019-05-20T02:04:59.597Z,29.03
2019-05-20T02:07:25.910Z,30.57
2019-05-20T02:09:52.122Z,32.37
2019-05-20T02:12:18.579Z,29.90
2019-05-20T02:14:46.843Z,28.60
2019-05-20T02:17:13.095Z,28.37
2019-05-20T02:19:39.388Z,29.43
2019-05-20T02:22:05.780Z,30.13
2019-05-20T02:24:31.991Z,29.83
2019-05-20T02:26:58.117Z,31.07
2019-05-20T02:29:24.275Z,35.30
2019-05-20T02:31:51.349Z,33.63
2019-05-20T02:34:17.494Z,31.47
2019-05-20T02:36:43.604Z,31.73
2019-05-20T02:39:09.874Z,36.07
2019-05-20T02:41:36.218Z,30.90
2019-05-20T02:44:02.437Z,29.60
2019-05-20T02:46:28.646Z,34.37
2019-05-20T02:48:54.779Z,35.90
2019-05-20T02:51:29.975Z,32.93
2019-05-20T02:53:56.108Z,32.63
2019-05-20T02:56:23.422Z,32.73
2019-05-20T02:58:49.661Z,29.83
2019-05-20T03:01:16.046Z,33.83
2019-05-20T03:03:42.291Z,32.53
2019-05-20T03:06:08.633Z,34.80
2019-05-20T03:08:34.733Z,31.00
2019-05-20T03:11:01.262Z,37.10
2019-05-20T03:13:27.490Z,36.07
2019-05-20T03:15:53.733Z,36.23
2019-05-20T03:18:19.966Z,31.50
2019-05-20T03:20:46.175Z,33.60
2019-05-20T03:23:12.328Z,41.20
2019-05-20T03:25:38.641Z,37.60
2019-05-20T03:28:04.875Z,42.00
2019-05-20T03:30:31.128Z,42.27
2019-05-20T03:32:57.365Z,41.67
2019-05-20T03:35:23.721Z,44.37
2019-05-20T03:37:49.916Z,43.50
2019-05-20T03:40:16.223Z,37.87
2019-05-20T03:42:42.455Z,36.27
2019-05-20T03:45:08.785Z,38.87
2019-05-20T03:47:35.250Z,36.43
2019-05-20T03:50:01.618Z,43.57
2019-05-20T03:52:28.061Z,42.07
2019-05-20T03:54:54.155Z,46.93
2019-05-20T03:57:20.497Z,47.63
2019-05-20T03:59:47.113Z,46.30
2019-05-20T04:02:13.332Z,49.57
2019-05-20T04:04:39.553Z,46.80
2019-05-20T04:07:05.789Z,40.47
2019-05-20T04:09:32.041Z,40.27
2019-05-20T04:11:58.258Z,40.17
2019-05-20T04:14:24.403Z,40.00
2019-05-20T04:16:51.693Z,40.13
2019-05-20T04:19:18.054Z,38.70
2019-05-20T04:21:45.319Z,38.90
2019-05-20T04:24:11.701Z,37.07
2019-05-20T04:26:38.009Z,39.83
2019-05-20T04:29:04.329Z,40.93
2019-05-20T04:31:30.523Z,41.00
2019-05-20T04:33:56.729Z,39.17
2019-05-20T04:36:22.850Z,40.80
2019-05-20T04:38:48.962Z,40.40
2019-05-20T04:41:15.306Z,40.50
2019-05-20T04:43:41.504Z,39.83
2019-05-20T04:46:07.736Z,41.63
2019-05-20T04:48:33.881Z,42.20
2019-05-20T04:51:00.207Z,45.50
2019-05-20T04:53:26.658Z,48.00
2019-05-20T04:55:52.900Z,48.77
2019-05-20T04:58:19.333Z,51.17
2019-05-20T05:00:49.321Z,51.47
2019-05-20T05:03:15.447Z,49.50
2019-05-20T05:05:41.766Z,48.93
2019-05-20T05:08:09.286Z,46.73
2019-05-20T05:10:35.569Z,51.43
2019-05-20T05:13:01.904Z,50.80
2019-05-20T05:15:28.224Z,50.90
2019-05-20T05:17:54.556Z,48.17
2019-05-20T05:20:20.896Z,49.90
2019-05-20T05:22:47.236Z,49.70
2019-05-20T05:25:13.614Z,46.20
2019-05-20T05:27:39.992Z,47.60
2019-05-20T05:30:06.633Z,46.80
2019-05-20T05:32:39.907Z,49.40
2019-05-20T05:35:06.248Z,51.40
2019-05-20T05:37:32.538Z,55.20
2019-05-20T05:39:58.867Z,49.33
2019-05-20T05:42:24.993Z,57.27
2019-05-20T05:44:51.110Z,54.30
2019-05-20T05:47:17.354Z,52.07
2019-05-20T05:49:43.633Z,50.13
2019-05-20T05:52:09.921Z,50.53
2019-05-20T05:54:36.035Z,51.77
2019-05-20T05:57:02.337Z,52.73
2019-05-20T05:59:28.486Z,52.80
2019-05-20T06:01:54.571Z,53.63
2019-05-20T06:04:20.684Z,54.07
2019-05-20T06:06:47.059Z,54.37
2019-05-20T06:09:13.171Z,62.07
2019-05-20T06:11:39.440Z,58.07
2019-05-20T06:14:05.659Z,61.20
2019-05-20T06:16:36.341Z,69.23
2019-05-20T06:19:01.014Z,61.17
2019-05-20T06:21:27.429Z,65.77
2019-05-20T06:23:53.625Z,65.57
2019-05-20T06:26:19.752Z,58.77
2019-05-20T06:28:45.872Z,61.93
2019-05-20T06:31:12.242Z,64.37
2019-05-20T06:33:38.569Z,63.67
2019-05-20T06:36:04.791Z,65.07
2019-05-20T06:38:35.942Z,63.67
2019-05-20T06:41:04.438Z,66.10
2019-05-20T06:43:30.761Z,65.53
2019-05-20T06:45:56.875Z,71.10
2019-05-20T06:48:23.221Z,66.27
2019-05-20T06:50:49.337Z,62.47
2019-05-20T06:53:15.586Z,70.93
2019-05-20T06:55:41.688Z,68.70
2019-05-20T06:58:07.904Z,69.27
2019-05-20T07:00:36.070Z,70.07
2019-05-20T07:03:03.324Z,69.57
2019-05-20T07:05:29.462Z,65.07
2019-05-20T07:07:56.021Z,65.97
2019-05-20T07:10:22.127Z,67.13
2019-05-20T07:12:48.432Z,71.97
2019-05-20T07:15:14.844Z,77.23
2019-05-20T07:17:41.185Z,71.93
2019-05-20T07:20:07.855Z,76.70
2019-05-20T07:22:34.047Z,76.33
2019-05-20T07:25:00.490Z,79.00
2019-05-20T07:27:26.688Z,69.43
2019-05-20T07:29:52.929Z,79.73
2019-05-20T07:32:19.347Z,74.47
2019-05-20T07:34:45.565Z,73.10
2019-05-20T07:37:11.878Z,68.97
2019-05-20T07:39:39.015Z,67.70
2019-05-20T07:42:05.323Z,67.03
2019-05-20T07:44:31.619Z,65.37
2019-05-20T07:46:57.992Z,60.37
2019-05-20T07:49:24.289Z,63.03
2019-05-20T07:51:51.075Z,57.73
2019-05-20T07:54:18.410Z,61.43
2019-05-20T07:56:46.521Z,59.90
2019-05-20T07:59:16.046Z,60.07
2019-05-20T08:01:43.316Z,57.67
2019-05-20T08:04:09.660Z,60.70
2019-05-20T08:06:36.176Z,59.13
2019-05-20T08:09:05.302Z,61.77
2019-05-20T08:11:31.918Z,66.67
2019-05-20T08:13:58.285Z,62.93
2019-05-20T08:16:24.790Z,64.17
2019-05-20T08:18:51.228Z,60.47
2019-05-20T08:21:17.491Z,60.23
2019-05-20T08:23:43.897Z,61.63
2019-05-20T08:26:10.242Z,59.57
2019-05-20T08:28:36.517Z,59.10
2019-05-20T08:31:02.927Z,57.07
2019-05-20T08:33:29.615Z,57.77
2019-05-20T08:35:55.825Z,60.77
2019-05-20T08:38:22.071Z,56.90
2019-05-20T08:40:48.914Z,60.87
2019-05-20T08:43:15.325Z,58.20
2019-05-20T08:45:41.538Z,59.90
2019-05-20T08:48:07.780Z,57.23
2019-05-20T08:50:34.001Z,57.17
2019-05-20T08:53:00.237Z,55.73
2019-05-20T08:55:26.664Z,54.23
2019-05-20T08:57:53.098Z,56.63
2019-05-20T09:00:23.716Z,55.20
2019-05-20T09:02:49.447Z,55.40
2019-05-20T09:05:15.719Z,54.40
2019-05-20T09:07:42.133Z,56.43
2019-05-20T09:10:08.570Z,55.07
2019-05-20T09:12:34.787Z,53.50
2019-05-20T09:15:01.167Z,53.20
2019-05-20T09:17:27.627Z,52.53
2019-05-20T09:19:53.773Z,53.07
2019-05-20T09:22:20.150Z,53.50
2019-05-20T09:24:46.560Z,54.23
2019-05-20T09:27:12.765Z,54.93
2019-05-20T09:29:39.105Z,54.20
2019-05-20T09:32:05.598Z,53.97
2019-05-20T09:34:32.058Z,54.03
2019-05-20T09:36:58.420Z,53.60
2019-05-20T09:39:24.547Z,52.63
2019-05-20T09:41:50.868Z,52.57
2019-05-20T09:44:17.177Z,52.00
2019-05-20T09:46:43.395Z,50.77
2019-05-20T09:49:09.641Z,49.20
2019-05-20T09:51:35.801Z,54.30
2019-05-20T09:54:02.127Z,49.13
2019-05-20T09:56:28.338Z,52.57
2019-05-20T09:58:54.557Z,52.03
2019-05-20T10:01:20.970Z,53.30
2019-05-20T10:03:47.302Z,52.67
2019-05-20T10:06:13.612Z,53.50
2019-05-20T10:08:44.819Z,53.53
2019-05-20T10:11:08.069Z,52.77
2019-05-20T10:13:35.494Z,55.67
2019-05-20T10:16:03.267Z,52.43
2019-05-20T10:18:37.251Z,54.40
2019-05-20T10:20:57.772Z,54.23
2019-05-20T10:23:24.204Z,53.63
2019-05-20T10:25:50.392Z,53.13
2019-05-20T10:28:16.717Z,52.97
2019-05-20T10:30:42.891Z,53.67
2019-05-20T10:33:10.442Z,53.17
2019-05-20T10:35:37.367Z,53.07
2019-05-20T10:38:03.692Z,51.00
2019-05-20T10:40:29.837Z,53.13
2019-05-20T10:42:57.029Z,53.27
2019-05-20T10:45:23.137Z,52.73
2019-05-20T10:47:49.367Z,51.53
2019-05-20T10:50:15.749Z,54.87
2019-05-20T10:52:42.067Z,51.90
2019-05-20T10:55:08.635Z,52.30
2019-05-20T10:57:34.973Z,54.80
2019-05-20T11:00:01.820Z,54.10
2019-05-20T11:02:31.282Z,51.67
2019-05-20T11:04:57.332Z,53.40
2019-05-20T11:07:23.583Z,52.57
2019-05-20T11:09:50.110Z,51.77
2019-05-20T11:12:16.441Z,51.37
2019-05-20T11:14:42.840Z,52.50
2019-05-20T11:17:09.131Z,53.67
2019-05-20T11:19:35.267Z,50.60
2019-05-20T11:22:01.610Z,53.40
2019-05-20T11:24:27.825Z,52.47
2019-05-20T11:26:54.210Z,53.07
2019-05-20T11:29:20.506Z,51.40
2019-05-20T11:31:46.835Z,51.07
2019-05-20T11:34:13.045Z,52.17
2019-05-20T11:36:39.182Z,52.97
2019-05-20T11:39:07.378Z,51.15
2019-05-20T11:41:52.920Z,50.17
2019-05-20T11:44:02.300Z,50.93
2019-05-20T11:46:28.520Z,50.98
2019-05-20T11:48:54.756Z,47.37
2019-05-20T11:51:20.839Z,51.03
2019-05-20T11:53:47.009Z,53.42
2019-05-20T11:56:13.144Z,52.43
2019-05-20T11:58:39.496Z,52.93
2019-05-20T12:01:06.325Z,51.48
2019-05-20T12:03:32.612Z,52.33
2019-05-20T12:05:59.030Z,52.63
2019-05-20T12:08:25.221Z,51.13
2019-05-20T12:10:51.443Z,50.93
2019-05-20T12:13:17.647Z,51.70
2019-05-20T12:15:43.866Z,52.83
2019-05-20T12:18:10.093Z,52.03
2019-05-20T12:20:36.303Z,53.27
2019-05-20T12:23:02.661Z,52.37
2019-05-20T12:25:28.771Z,51.67
2019-05-20T12:27:56.340Z,51.85
2019-05-20T12:30:23.473Z,50.35
2019-05-20T12:32:49.706Z,52.03
2019-05-20T12:35:15.828Z,52.37
2019-05-20T12:37:45.488Z,51.23
2019-05-20T12:40:10.492Z,50.92
2019-05-20T12:42:36.911Z,51.63
2019-05-20T12:45:07.488Z,51.20
2019-05-20T12:47:33.677Z,51.03
2019-05-20T12:49:59.939Z,49.30
2019-05-20T12:52:26.156Z,50.83
2019-05-20T12:55:06.644Z,51.30
2019-05-20T12:57:20.651Z,52.50
2019-05-20T12:59:47.036Z,51.37
2019-05-20T13:02:17.303Z,51.50
2019-05-20T13:04:41.233Z,50.60
2019-05-20T13:07:07.343Z,52.60
2019-05-20T13:09:33.787Z,53.33
2019-05-20T13:11:59.930Z,52.00
2019-05-20T13:14:26.140Z,51.20
2019-05-20T13:16:52.320Z,52.85
2019-05-20T13:19:18.489Z,53.65
2019-05-20T13:21:44.590Z,52.15
2019-05-20T13:24:10.704Z,54.08
2019-05-20T13:26:37.120Z,52.90
2019-05-20T13:29:03.680Z,55.55
2019-05-20T13:31:29.920Z,55.00
2019-05-20T13:33:56.062Z,54.13
2019-05-20T13:36:22.307Z,56.60
2019-05-20T13:38:48.414Z,57.10
2019-05-20T13:41:15.875Z,56.53
2019-05-20T13:43:42.245Z,55.03
2019-05-20T13:46:08.560Z,55.63
2019-05-20T13:48:34.790Z,54.43
2019-05-20T13:51:01.031Z,54.53
2019-05-20T13:53:27.278Z,55.08
2019-05-20T13:55:53.639Z,55.83
2019-05-20T13:58:19.882Z,54.58
2019-05-20T14:00:46.119Z,55.05
2019-05-20T14:03:12.366Z,53.67
2019-05-20T14:05:38.716Z,55.05
2019-05-20T14:08:04.863Z,55.93
2019-05-20T14:10:31.123Z,56.45
2019-05-20T14:12:57.233Z,54.77
2019-05-20T14:15:23.570Z,56.20
2019-05-20T14:17:50.062Z,54.50
2019-05-20T14:20:16.762Z,58.43
2019-05-20T14:22:45.599Z,56.90
2019-05-20T14:25:12.972Z,56.63
2019-05-20T14:27:39.328Z,57.43
2019-05-20T14:30:07.395Z,56.90
2019-05-20T14:32:34.202Z,54.23
2019-05-20T14:35:00.393Z,55.65
2019-05-20T14:37:26.490Z,53.58
2019-05-20T14:39:52.690Z,53.80
2019-05-20T14:42:18.928Z,54.38
2019-05-20T14:44:45.051Z,56.17
2019-05-20T14:47:11.433Z,57.15
2019-05-20T14:49:37.838Z,58.28
2019-05-20T14:52:04.148Z,57.67
2019-05-20T14:54:30.253Z,58.55
2019-05-20T14:56:56.567Z,57.33
2019-05-20T14:59:22.681Z,58.65
2019-05-20T15:01:49.038Z,57.43
2019-05-20T15:04:15.293Z,57.98
2019-05-20T15:06:41.754Z,59.07
2019-05-20T15:09:07.975Z,59.80
2019-05-20T15:11:38.116Z,59.33
2019-05-20T15:14:02.769Z,60.88
2019-05-20T15:16:29.218Z,58.97
2019-05-20T15:18:55.660Z,58.77
2019-05-20T15:21:21.980Z,58.87
2019-05-20T15:23:48.357Z,59.43
2019-05-20T15:26:14.739Z,57.17
2019-05-20T15:28:40.892Z,58.13
2019-05-20T15:31:07.137Z,58.63
2019-05-20T15:33:33.476Z,59.43
2019-05-20T15:35:59.857Z,59.37
2019-05-20T15:38:26.110Z,59.40
2019-05-20T15:40:52.206Z,59.00
2019-05-20T15:43:18.418Z,60.07
2019-05-20T15:45:44.616Z,57.90
2019-05-20T15:48:10.829Z,58.53
2019-05-20T15:50:36.970Z,58.42
2019-05-20T15:53:03.542Z,57.90
2019-05-20T15:55:29.879Z,57.23
2019-05-20T15:57:56.039Z,57.95
2019-05-20T16:00:22.468Z,55.63
2019-05-20T16:02:48.820Z,54.83
2019-05-20T16:05:15.166Z,57.80
2019-05-20T16:07:41.537Z,57.33
2019-05-20T16:10:08.247Z,55.58
2019-05-20T16:12:34.879Z,56.30
2019-05-20T16:15:01.398Z,55.77
2019-05-20T16:17:27.819Z,53.77
2019-05-20T16:19:54.267Z,55.10
2019-05-20T16:22:20.446Z,55.37
2019-05-20T16:24:46.672Z,55.50
2019-05-20T16:27:12.837Z,56.60
2019-05-20T16:29:39.309Z,57.08
2019-05-20T16:32:05.661Z,55.10
2019-05-20T16:34:31.870Z,54.83
2019-05-20T16:36:59.282Z,54.77
2019-05-20T16:39:25.546Z,55.67
2019-05-20T16:41:51.942Z,55.90
2019-05-20T16:44:18.398Z,53.87
2019-05-20T16:46:44.622Z,55.97
2019-05-20T16:49:11.005Z,54.87
2019-05-20T16:51:37.676Z,54.63
2019-05-20T16:54:04.087Z,53.80
2019-05-20T16:56:30.369Z,54.73
2019-05-20T16:58:56.695Z,53.05
2019-05-20T17:01:23.069Z,53.28
2019-05-20T17:03:49.295Z,53.83
2019-05-20T17:06:16.752Z,55.00
2019-05-20T17:08:43.014Z,54.35
2019-05-20T17:11:09.281Z,56.10
2019-05-20T17:13:35.710Z,55.78
2019-05-20T17:16:02.231Z,54.57
2019-05-20T17:18:28.574Z,56.50
2019-05-20T17:20:55.069Z,55.75
2019-05-20T17:23:21.286Z,55.17
2019-05-20T17:25:50.704Z,55.13
2019-05-20T17:28:15.858Z,56.37
2019-05-20T17:30:45.511Z,56.73
2019-05-20T17:33:10.677Z,55.65
2019-05-20T17:35:36.921Z,56.37
2019-05-20T17:38:03.403Z,56.10
2019-05-20T17:40:29.735Z,56.18
2019-05-20T17:42:56.058Z,57.75
2019-05-20T17:45:22.607Z,56.43
2019-05-20T17:47:49.066Z,59.37
2019-05-20T17:50:15.501Z,58.87
2019-05-20T17:52:41.741Z,62.13
2019-05-20T17:55:08.164Z,61.50
2019-05-20T17:57:34.490Z,64.82
2019-05-20T18:00:01.132Z,60.25
2019-05-20T18:02:27.477Z,57.27
2019-05-20T18:04:53.707Z,58.33
2019-05-20T18:07:20.029Z,62.85
2019-05-20T18:09:48.804Z,64.50
2019-05-20T18:12:15.197Z,62.67
2019-05-20T18:14:42.268Z,64.90
2019-05-20T18:17:08.657Z,62.25
2019-05-20T18:19:34.988Z,60.10
2019-05-20T18:22:01.296Z,61.80
2019-05-20T18:24:27.750Z,57.60
2019-05-20T18:26:54.057Z,56.92
2019-05-20T18:29:20.411Z,57.90
2019-05-20T18:31:47.598Z,57.55
2019-05-20T18:34:14.060Z,59.00
2019-05-20T18:36:40.722Z,55.33
2019-05-20T18:39:07.192Z,55.27
2019-05-20T18:41:33.503Z,55.17
2019-05-20T18:43:59.887Z,54.63
2019-05-20T18:46:26.171Z,56.17
2019-05-20T18:48:52.379Z,55.13
2019-05-20T18:51:18.637Z,54.03
2019-05-20T18:53:45.492Z,52.67
2019-05-20T18:56:11.774Z,51.73
2019-05-20T18:58:38.111Z,51.83
2019-05-20T19:01:04.974Z,53.20
2019-05-20T19:03:31.668Z,52.53
2019-05-20T19:05:58.101Z,51.37
2019-05-20T19:08:25.658Z,50.28
2019-05-20T19:10:51.934Z,49.70
2019-05-20T19:13:18.290Z,50.00
2019-05-20T19:15:44.537Z,48.57
2019-05-20T19:18:10.894Z,49.07
2019-05-20T19:20:37.224Z,48.33
2019-05-20T19:23:03.573Z,48.43
2019-05-20T19:25:37.420Z,47.80
2019-05-20T19:27:58.327Z,49.58
2019-05-20T19:30:24.885Z,46.80
2019-05-20T19:32:51.414Z,46.13
2019-05-20T19:35:17.945Z,48.20
2019-05-20T19:37:44.519Z,47.40
2019-05-20T19:40:11.341Z,46.30
2019-05-20T19:42:39.116Z,46.00
2019-05-20T19:45:07.088Z,46.47
2019-05-20T19:47:33.588Z,44.30
2019-05-20T19:50:00.142Z,45.73
2019-05-20T19:52:26.283Z,45.97
2019-05-20T19:54:52.770Z,46.23
2019-05-20T19:57:19.370Z,48.27
2019-05-20T19:59:45.682Z,46.10
2019-05-20T20:02:17.388Z,45.27
2019-05-20T20:04:40.102Z,44.83
2019-05-20T20:07:06.449Z,44.40
2019-05-20T20:09:32.586Z,44.43
2019-05-20T20:11:58.995Z,45.67
2019-05-20T20:14:25.171Z,46.53
2019-05-20T20:16:51.555Z,46.70
2019-05-20T20:19:17.758Z,46.77
2019-05-20T20:21:44.098Z,45.20
2019-05-20T20:24:10.379Z,45.93
2019-05-20T20:26:36.620Z,48.07
2019-05-20T20:29:02.835Z,47.07
2019-05-20T20:31:29.225Z,47.80
2019-05-20T20:33:55.445Z,46.10
2019-05-20T20:36:21.734Z,46.97
2019-05-20T20:38:47.960Z,46.60
2019-05-20T20:41:15.448Z,45.20
2019-05-20T20:43:41.850Z,48.20
2019-05-20T20:46:08.033Z,46.87
2019-05-20T20:48:34.367Z,48.20
2019-05-20T20:51:00.574Z,46.87
2019-05-20T20:53:26.822Z,45.67
2019-05-20T20:55:53.174Z,46.63
2019-05-20T20:58:19.559Z,44.57
2019-05-20T21:00:46.000Z,44.80
2019-05-20T21:03:12.362Z,43.07
2019-05-20T21:05:38.689Z,42.53
2019-05-20T21:08:05.005Z,42.63
2019-05-20T21:10:31.300Z,43.33
2019-05-20T21:12:57.435Z,43.20
2019-05-20T21:15:23.681Z,44.30
2019-05-20T21:17:49.911Z,42.67
2019-05-20T21:20:17.434Z,40.87
2019-05-20T21:22:43.791Z,41.83
2019-05-20T21:25:10.027Z,41.03
2019-05-20T21:27:36.147Z,41.80
2019-05-20T21:30:04.967Z,41.23
2019-05-20T21:32:31.271Z,42.20
2019-05-20T21:34:58.604Z,40.73
2019-05-20T21:37:24.787Z,40.00
2019-05-20T21:39:50.939Z,40.17
2019-05-20T21:42:17.289Z,39.47
2019-05-20T21:44:43.629Z,39.83
2019-05-20T21:47:09.953Z,41.23
2019-05-20T21:49:36.208Z,38.50
2019-05-20T21:52:02.483Z,39.47
2019-05-20T21:54:28.611Z,39.13
2019-05-20T21:56:54.955Z,38.17
2019-05-20T21:59:21.340Z,38.00
2019-05-20T22:01:47.560Z,39.00
2019-05-20T22:04:13.768Z,39.40
2019-05-20T22:06:39.911Z,38.43
2019-05-20T22:09:06.422Z,40.23
2019-05-20T22:11:32.892Z,37.97
2019-05-20T22:13:59.067Z,38.03
2019-05-20T22:16:25.177Z,38.30
2019-05-20T22:18:51.368Z,38.57
2019-05-20T22:21:19.398Z,38.80
2019-05-20T22:23:50.353Z,39.57
2019-05-20T22:26:16.596Z,39.10
2019-05-20T22:28:43.079Z,39.23
2019-05-20T22:31:09.279Z,39.53
2019-05-20T22:33:41.314Z,39.97
2019-05-20T22:36:03.788Z,39.97
2019-05-20T22:38:30.022Z,39.60
2019-05-20T22:40:56.356Z,41.13
2019-05-20T22:43:22.780Z,41.07
2019-05-20T22:45:50.264Z,41.30
2019-05-20T22:48:16.415Z,40.50
2019-05-20T22:50:43.016Z,39.07
2019-05-20T22:53:09.163Z,40.90
2019-05-20T22:55:35.310Z,40.40
2019-05-20T22:58:01.599Z,40.20
2019-05-20T23:00:27.931Z,40.20
2019-05-20T23:02:54.058Z,42.63
2019-05-20T23:05:20.425Z,43.00
2019-05-20T23:07:46.657Z,42.37
2019-05-20T23:10:12.966Z,43.13
2019-05-20T23:12:39.082Z,42.23
2019-05-20T23:15:06.241Z,42.00
2019-05-20T23:17:32.560Z,42.67
2019-05-20T23:19:58.679Z,44.57
2019-05-20T23:22:24.916Z,46.40
2019-05-20T23:24:51.150Z,42.70
2019-05-20T23:27:17.295Z,44.47
2019-05-20T23:29:43.396Z,42.53
2019-05-20T23:32:09.741Z,42.73
2019-05-20T23:34:36.020Z,42.10
2019-05-20T23:37:02.248Z,42.53
2019-05-20T23:39:29.477Z,41.93
2019-05-20T23:41:55.608Z,42.77
2019-05-20T23:44:21.750Z,43.57
2019-05-20T23:46:47.985Z,44.57
2019-05-20T23:49:14.121Z,46.00
2019-05-20T23:51:40.376Z,45.60
2019-05-20T23:54:06.588Z,47.43
2019-05-20T23:56:32.972Z,45.03
2019-05-20T23:58:59.283Z,45.20
